createdAt,value
2018-11-26T00:00:16.695Z,92.2
2018-11-26T00:01:16.789Z,92.3
2018-11-26T00:02:17.077Z,92.5
2018-11-26T00:03:16.346Z,92.1
2018-11-26T00:04:16.626Z,91.8
2018-11-26T00:05:16.901Z,91.6
2018-11-26T00:06:17.176Z,91.8
2018-11-26T00:07:16.449Z,92.0
2018-11-26T00:08:16.723Z,92.0
2018-11-26T00:09:16.988Z,91.9
2018-11-26T00:10:16.265Z,92.0
2018-11-26T00:11:16.324Z,91.8
2018-11-26T00:12:16.602Z,91.8
2018-11-26T00:13:16.867Z,91.7
2018-11-26T00:14:17.141Z,91.7
2018-11-26T00:15:16.398Z,91.8
2018-11-26T00:16:16.663Z,91.7
2018-11-26T00:17:16.928Z,91.5
2018-11-26T00:18:17.189Z,91.8
2018-11-26T00:19:16.465Z,92.0
2018-11-26T00:20:16.737Z,91.7
2018-11-26T00:21:16.774Z,91.8
2018-11-26T00:22:17.040Z,92.1
2018-11-26T00:23:16.307Z,92.0
2018-11-26T00:24:16.571Z,92.0
2018-11-26T00:25:16.853Z,91.9
2018-11-26T00:26:17.134Z,91.8
2018-11-26T00:27:16.433Z,91.7
2018-11-26T00:28:16.709Z,91.7
2018-11-26T00:29:16.994Z,91.6
2018-11-26T00:30:16.276Z,91.7
2018-11-26T00:31:16.361Z,91.8
2018-11-26T00:32:16.650Z,91.8
2018-11-26T00:33:16.913Z,91.8
2018-11-26T00:34:17.188Z,91.8
2018-11-26T00:35:16.462Z,91.9
2018-11-26T00:36:16.732Z,91.8
2018-11-26T00:37:16.998Z,92.0
2018-11-26T00:38:16.268Z,92.3
2018-11-26T00:39:16.530Z,92.1
2018-11-26T00:40:16.805Z,92.1
2018-11-26T00:41:16.850Z,92.0
2018-11-26T00:42:17.124Z,92.2
2018-11-26T00:43:16.392Z,92.2
2018-11-26T00:44:16.659Z,92.0
2018-11-26T00:45:16.938Z,92.1
2018-11-26T00:46:17.220Z,92.2
2018-11-26T00:47:16.494Z,92.5
2018-11-26T00:48:16.772Z,92.7
2018-11-26T00:49:17.041Z,92.2
2018-11-26T00:50:16.321Z,92.2
2018-11-26T00:51:16.374Z,92.6
2018-11-26T00:52:16.639Z,92.6
2018-11-26T00:53:16.906Z,92.8
2018-11-26T00:54:17.174Z,92.9
2018-11-26T00:55:16.445Z,93.0
2018-11-26T00:56:16.740Z,92.9
2018-11-26T00:57:17.011Z,92.7
2018-11-26T00:58:16.278Z,92.8
2018-11-26T00:59:16.547Z,92.8
2018-11-26T01:00:16.833Z,92.6
2018-11-26T01:01:16.887Z,92.4
2018-11-26T01:02:17.168Z,92.1
2018-11-26T01:03:16.428Z,92.2
2018-11-26T01:04:16.702Z,92.3
2018-11-26T01:05:16.987Z,92.2
2018-11-26T01:06:16.246Z,92.3
2018-11-26T01:07:16.521Z,92.3
2018-11-26T01:08:16.810Z,92.5
2018-11-26T01:09:17.099Z,92.5
2018-11-26T01:10:16.369Z,92.7
2018-11-26T01:11:16.425Z,92.8
2018-11-26T01:12:16.697Z,92.6
2018-11-26T01:13:16.957Z,92.6
2018-11-26T01:14:17.226Z,92.7
2018-11-26T01:15:16.506Z,92.8
2018-11-26T01:16:16.781Z,92.7
2018-11-26T01:17:17.042Z,92.5
2018-11-26T01:18:16.310Z,92.6
2018-11-26T01:19:16.585Z,92.5
2018-11-26T01:20:16.906Z,92.2
2018-11-26T01:21:16.923Z,92.1
2018-11-26T01:22:17.196Z,91.9
2018-11-26T01:23:16.472Z,91.9
2018-11-26T01:24:16.740Z,91.9
2018-11-26T01:25:17.038Z,91.5
2018-11-26T01:26:16.305Z,91.3
2018-11-26T01:27:16.573Z,91.6
2018-11-26T01:28:16.840Z,91.5
2018-11-26T01:29:17.119Z,91.5
2018-11-26T01:30:16.399Z,91.3
2018-11-26T01:31:16.468Z,91.5
2018-11-26T01:32:16.733Z,91.2
2018-11-26T01:33:17.004Z,91.6
2018-11-26T01:34:16.276Z,91.7
2018-11-26T01:35:16.559Z,91.8
2018-11-26T01:36:16.838Z,91.4
2018-11-26T01:37:17.115Z,91.2
2018-11-26T01:38:16.382Z,91.5
2018-11-26T01:39:16.647Z,91.8
2018-11-26T01:40:16.944Z,91.6
2018-11-26T01:41:16.978Z,91.5
2018-11-26T01:42:17.244Z,91.7
2018-11-26T01:43:16.520Z,91.5
2018-11-26T01:44:16.793Z,91.5
2018-11-26T01:45:17.094Z,91.3
2018-11-26T01:46:16.375Z,91.2
2018-11-26T01:47:16.648Z,91.1
2018-11-26T01:48:16.923Z,91.2
2018-11-26T01:49:17.208Z,91.2
2018-11-26T01:50:16.481Z,90.8
2018-11-26T01:51:16.552Z,91.1
2018-11-26T01:52:16.811Z,91.1
2018-11-26T01:53:17.262Z,91.1
2018-11-26T01:54:16.539Z,90.8
2018-11-26T01:55:16.820Z,90.9
2018-11-26T01:56:17.088Z,90.7
2018-11-26T01:57:16.360Z,91.0
2018-11-26T01:58:16.628Z,90.8
2018-11-26T01:59:16.898Z,90.7
2018-11-26T02:00:17.163Z,90.8
2018-11-26T02:01:16.257Z,90.8
2018-11-26T02:02:16.528Z,90.9
2018-11-26T02:03:16.795Z,91.3
2018-11-26T02:04:17.254Z,91.2
2018-11-26T02:05:16.565Z,91.0
2018-11-26T02:06:16.832Z,90.7
2018-11-26T02:07:17.110Z,90.4
2018-11-26T02:08:16.396Z,90.3
2018-11-26T02:09:16.675Z,90.2
2018-11-26T02:10:16.987Z,90.2
2018-11-26T02:11:17.020Z,90.4
2018-11-26T02:12:16.290Z,90.9
2018-11-26T02:13:16.555Z,90.9
2018-11-26T02:14:16.822Z,90.3
2018-11-26T02:15:17.105Z,90.4
2018-11-26T02:16:16.374Z,90.3
2018-11-26T02:17:16.648Z,90.2
2018-11-26T02:18:16.914Z,90.8
2018-11-26T02:19:17.191Z,90.9
2018-11-26T02:20:16.472Z,90.8
2018-11-26T02:21:16.525Z,90.5
2018-11-26T02:22:16.790Z,90.8
2018-11-26T02:23:17.056Z,90.6
2018-11-26T02:24:16.314Z,90.7
2018-11-26T02:25:16.595Z,90.7
2018-11-26T02:26:16.855Z,90.2
2018-11-26T02:27:17.115Z,90.7
2018-11-26T02:28:16.386Z,90.6
2018-11-26T02:29:16.653Z,90.6
2018-11-26T02:30:16.948Z,90.4
2018-11-26T02:31:16.999Z,90.4
2018-11-26T02:32:16.266Z,90.3
2018-11-26T02:33:16.540Z,90.7
2018-11-26T02:34:16.808Z,91.0
2018-11-26T02:35:17.084Z,91.0
2018-11-26T02:36:16.350Z,90.9
2018-11-26T02:37:16.627Z,90.9
2018-11-26T02:38:16.902Z,90.8
2018-11-26T02:39:17.176Z,90.5
2018-11-26T02:40:16.469Z,90.6
2018-11-26T02:41:16.529Z,90.7
2018-11-26T02:42:17.126Z,90.8
2018-11-26T02:43:16.381Z,90.8
2018-11-26T02:44:16.659Z,91.1
2018-11-26T02:45:16.939Z,90.8
2018-11-26T02:46:17.209Z,90.9
2018-11-26T02:47:16.490Z,90.8
2018-11-26T02:48:16.761Z,90.9
2018-11-26T02:49:17.041Z,90.6
2018-11-26T02:50:16.318Z,90.5
2018-11-26T02:51:16.365Z,90.7
2018-11-26T02:52:16.643Z,90.8
2018-11-26T02:53:16.902Z,91.3
2018-11-26T02:54:17.166Z,91.1
2018-11-26T02:55:16.443Z,91.0
2018-11-26T02:56:16.724Z,91.1
2018-11-26T02:57:17.000Z,90.7
2018-11-26T02:58:16.276Z,90.4
2018-11-26T02:59:16.564Z,90.6
2018-11-26T03:00:16.862Z,90.7
2018-11-26T03:01:16.895Z,90.7
2018-11-26T03:02:17.163Z,90.7
2018-11-26T03:03:16.435Z,90.8
2018-11-26T03:04:16.698Z,90.8
2018-11-26T03:05:16.971Z,91.0
2018-11-26T03:06:17.243Z,90.8
2018-11-26T03:07:16.508Z,90.6
2018-11-26T03:08:16.785Z,90.7
2018-11-26T03:09:17.042Z,90.7
2018-11-26T03:10:16.313Z,90.8
2018-11-26T03:11:16.396Z,91.0
2018-11-26T03:12:16.668Z,90.8
2018-11-26T03:13:16.931Z,91.2
2018-11-26T03:14:17.212Z,90.8
2018-11-26T03:15:16.474Z,90.7
2018-11-26T03:16:16.757Z,90.1
2018-11-26T03:17:17.030Z,90.1
2018-11-26T03:18:16.290Z,90.1
2018-11-26T03:19:16.558Z,90.1
2018-11-26T03:20:16.841Z,90.2
2018-11-26T03:21:16.909Z,90.3
2018-11-26T03:22:17.172Z,90.2
2018-11-26T03:23:16.446Z,90.2
2018-11-26T03:24:16.718Z,90.2
2018-11-26T03:25:16.993Z,91.2
2018-11-26T03:26:16.269Z,90.5
2018-11-26T03:27:16.547Z,90.2
2018-11-26T03:28:16.815Z,90.1
2018-11-26T03:29:17.077Z,90.4
2018-11-26T03:30:16.355Z,90.7
2018-11-26T03:31:16.434Z,90.2
2018-11-26T03:32:16.754Z,89.8
2018-11-26T03:33:17.058Z,90.0
2018-11-26T03:34:16.324Z,89.8
2018-11-26T03:35:16.601Z,89.8
2018-11-26T03:36:16.872Z,89.8
2018-11-26T03:37:17.147Z,89.9
2018-11-26T03:38:16.417Z,90.0
2018-11-26T03:39:16.692Z,90.2
2018-11-26T03:40:16.969Z,90.2
2018-11-26T03:41:17.015Z,90.2
2018-11-26T03:42:16.295Z,90.2
2018-11-26T03:43:16.566Z,90.2
2018-11-26T03:44:16.839Z,90.2
2018-11-26T03:45:17.109Z,90.4
2018-11-26T03:46:16.382Z,90.2
2018-11-26T03:47:16.650Z,90.2
2018-11-26T03:48:16.922Z,89.9
2018-11-26T03:49:17.213Z,90.2
2018-11-26T03:50:16.481Z,90.0
2018-11-26T03:51:16.577Z,90.3
2018-11-26T03:52:16.842Z,90.2
2018-11-26T03:53:17.107Z,90.3
2018-11-26T03:54:16.378Z,90.3
2018-11-26T03:55:16.664Z,90.2
2018-11-26T03:56:16.930Z,90.2
2018-11-26T03:57:17.201Z,90.0
2018-11-26T03:58:16.471Z,89.8
2018-11-26T03:59:16.743Z,89.9
2018-11-26T04:00:17.061Z,89.9
2018-11-26T04:01:17.092Z,90.2
2018-11-26T04:02:16.354Z,90.3
2018-11-26T04:03:16.633Z,90.2
2018-11-26T04:04:16.907Z,90.2
2018-11-26T04:05:17.172Z,90.0
2018-11-26T04:06:16.446Z,89.8
2018-11-26T04:07:16.716Z,90.2
2018-11-26T04:08:16.977Z,90.0
2018-11-26T04:09:17.264Z,90.0
2018-11-26T04:10:16.549Z,90.4
2018-11-26T04:11:16.608Z,90.3
2018-11-26T04:12:17.065Z,89.9
2018-11-26T04:13:16.334Z,90.2
2018-11-26T04:14:16.612Z,90.3
2018-11-26T04:15:16.892Z,90.0
2018-11-26T04:16:17.186Z,89.9
2018-11-26T04:17:16.454Z,90.0
2018-11-26T04:18:16.711Z,90.2
2018-11-26T04:19:16.982Z,90.2
2018-11-26T04:20:17.315Z,90.3
2018-11-26T04:21:16.314Z,90.1
2018-11-26T04:22:16.599Z,89.9
2018-11-26T04:23:16.867Z,90.2
2018-11-26T04:24:17.142Z,90.3
2018-11-26T04:25:16.420Z,90.4
2018-11-26T04:26:16.697Z,90.8
2018-11-26T04:27:16.967Z,90.8
2018-11-26T04:28:17.572Z,90.7
2018-11-26T04:29:16.853Z,90.7
2018-11-26T04:30:17.140Z,90.5
2018-11-26T04:31:17.188Z,90.4
2018-11-26T04:32:16.462Z,90.3
2018-11-26T04:33:16.778Z,90.3
2018-11-26T04:34:17.063Z,90.3
2018-11-26T04:35:16.346Z,90.2
2018-11-26T04:36:16.614Z,90.3
2018-11-26T04:37:16.887Z,90.4
2018-11-26T04:38:17.160Z,90.6
2018-11-26T04:39:16.426Z,90.5
2018-11-26T04:40:16.698Z,90.7
2018-11-26T04:41:16.758Z,90.4
2018-11-26T04:42:17.026Z,90.6
2018-11-26T04:43:16.300Z,90.5
2018-11-26T04:44:16.585Z,90.5
2018-11-26T04:45:16.864Z,90.4
2018-11-26T04:46:17.150Z,90.4
2018-11-26T04:47:16.417Z,90.6
2018-11-26T04:48:16.685Z,90.2
2018-11-26T04:49:16.961Z,90.5
2018-11-26T04:50:17.234Z,90.5
2018-11-26T04:51:16.291Z,90.2
2018-11-26T04:52:16.564Z,90.2
2018-11-26T04:53:16.842Z,90.1
2018-11-26T04:54:17.125Z,90.1
2018-11-26T04:55:16.397Z,90.1
2018-11-26T04:56:16.673Z,90.2
2018-11-26T04:57:16.950Z,90.8
2018-11-26T04:58:17.223Z,90.7
2018-11-26T04:59:16.492Z,90.7
2018-11-26T05:00:16.780Z,90.5
2018-11-26T05:01:16.805Z,90.1
2018-11-26T05:02:17.079Z,90.5
2018-11-26T05:03:16.354Z,90.2
2018-11-26T05:04:16.623Z,90.5
2018-11-26T05:05:16.913Z,90.3
2018-11-26T05:06:17.178Z,90.5
2018-11-26T05:07:16.447Z,90.4
2018-11-26T05:08:16.721Z,90.2
2018-11-26T05:09:16.988Z,90.3
2018-11-26T05:10:17.268Z,90.7
2018-11-26T05:11:16.326Z,90.2
2018-11-26T05:12:16.991Z,90.8
2018-11-26T05:13:16.266Z,90.6
2018-11-26T05:14:16.535Z,90.7
2018-11-26T05:15:16.810Z,90.8
2018-11-26T05:16:17.083Z,90.7
2018-11-26T05:17:16.370Z,90.7
2018-11-26T05:18:16.633Z,90.6
2018-11-26T05:19:16.901Z,90.5
2018-11-26T05:20:17.189Z,90.5
2018-11-26T05:21:17.247Z,90.7
2018-11-26T05:22:16.510Z,90.5
2018-11-26T05:23:16.791Z,90.8
2018-11-26T05:24:17.067Z,90.6
2018-11-26T05:25:16.343Z,90.5
2018-11-26T05:26:16.605Z,90.8
2018-11-26T05:27:16.876Z,90.8
2018-11-26T05:28:17.158Z,90.9
2018-11-26T05:29:16.423Z,90.8
2018-11-26T05:30:16.695Z,90.8
2018-11-26T05:31:16.757Z,90.7
2018-11-26T05:32:17.042Z,90.9
2018-11-26T05:33:16.312Z,90.8
2018-11-26T05:34:16.581Z,90.8
2018-11-26T05:35:17.125Z,90.8
2018-11-26T05:36:16.392Z,90.8
2018-11-26T05:37:16.669Z,91.3
2018-11-26T05:38:16.943Z,90.8
2018-11-26T05:39:17.214Z,90.7
2018-11-26T05:40:16.490Z,90.7
2018-11-26T05:41:16.556Z,91.3
2018-11-26T05:42:16.825Z,91.3
2018-11-26T05:43:17.100Z,91.2
2018-11-26T05:44:16.381Z,91.0
2018-11-26T05:45:16.662Z,91.1
2018-11-26T05:46:16.929Z,91.2
2018-11-26T05:47:17.189Z,91.0
2018-11-26T05:48:16.468Z,91.0
2018-11-26T05:49:16.732Z,90.8
2018-11-26T05:50:17.020Z,90.8
2018-11-26T05:51:17.065Z,90.9
2018-11-26T05:52:16.334Z,90.8
2018-11-26T05:53:16.602Z,91.2
2018-11-26T05:54:16.866Z,91.0
2018-11-26T05:55:17.151Z,90.8
2018-11-26T05:56:16.411Z,90.8
2018-11-26T05:57:16.689Z,90.8
2018-11-26T05:58:16.959Z,90.6
2018-11-26T05:59:17.225Z,90.5
2018-11-26T06:00:16.511Z,90.7
2018-11-26T06:01:16.573Z,90.6
2018-11-26T06:02:16.830Z,90.8
2018-11-26T06:03:17.099Z,90.5
2018-11-26T06:04:16.385Z,90.5
2018-11-26T06:05:16.669Z,91.0
2018-11-26T06:06:16.930Z,91.0
2018-11-26T06:07:17.198Z,90.8
2018-11-26T06:08:16.461Z,90.7
2018-11-26T06:09:16.728Z,90.7
2018-11-26T06:10:17.002Z,90.8
2018-11-26T06:11:17.063Z,91.0
2018-11-26T06:12:16.326Z,90.7
2018-11-26T06:13:16.610Z,90.8
2018-11-26T06:14:16.888Z,90.8
2018-11-26T06:15:17.161Z,90.8
2018-11-26T06:16:16.433Z,91.0
2018-11-26T06:17:16.703Z,90.8
2018-11-26T06:18:16.961Z,90.8
2018-11-26T06:19:17.224Z,91.1
2018-11-26T06:20:16.530Z,91.0
2018-11-26T06:21:16.555Z,91.0
2018-11-26T06:22:16.830Z,91.2
2018-11-26T06:23:17.097Z,91.3
2018-11-26T06:24:16.366Z,90.9
2018-11-26T06:25:16.663Z,91.2
2018-11-26T06:26:16.938Z,90.9
2018-11-26T06:27:17.217Z,91.2
2018-11-26T06:28:16.498Z,91.2
2018-11-26T06:29:16.758Z,91.3
2018-11-26T06:30:17.064Z,91.0
2018-11-26T06:31:17.281Z,91.3
2018-11-26T06:32:16.556Z,91.2
2018-11-26T06:33:16.826Z,91.2
2018-11-26T06:34:17.097Z,90.9
2018-11-26T06:35:16.418Z,91.0
2018-11-26T06:36:16.720Z,91.3
2018-11-26T06:37:16.998Z,91.2
2018-11-26T06:38:16.260Z,91.0
2018-11-26T06:39:16.529Z,91.5
2018-11-26T06:40:16.828Z,91.2
2018-11-26T06:41:16.890Z,91.2
2018-11-26T06:42:17.170Z,90.8
2018-11-26T06:43:17.552Z,91.0
2018-11-26T06:44:16.839Z,91.0
2018-11-26T06:45:17.114Z,91.0
2018-11-26T06:46:16.383Z,91.0
2018-11-26T06:47:16.643Z,91.0
2018-11-26T06:48:16.910Z,90.7
2018-11-26T06:49:17.203Z,90.8
2018-11-26T06:50:16.480Z,90.8
2018-11-26T06:51:16.562Z,90.8
2018-11-26T06:52:16.831Z,90.8
2018-11-26T06:53:17.094Z,90.7
2018-11-26T06:54:16.372Z,90.7
2018-11-26T06:55:16.650Z,90.8
2018-11-26T06:56:16.934Z,90.5
2018-11-26T06:57:17.211Z,90.6
2018-11-26T06:58:16.478Z,90.7
2018-11-26T06:59:16.746Z,90.5
2018-11-26T07:00:17.050Z,90.5
2018-11-26T07:01:17.072Z,90.8
2018-11-26T07:02:16.335Z,90.8
2018-11-26T07:03:16.612Z,90.3
2018-11-26T07:04:16.880Z,90.2
2018-11-26T07:05:17.160Z,90.5
2018-11-26T07:06:16.431Z,90.2
2018-11-26T07:07:16.697Z,90.3
2018-11-26T07:08:16.965Z,90.1
2018-11-26T07:09:17.235Z,90.2
2018-11-26T07:10:16.517Z,90.6
2018-11-26T07:11:16.566Z,90.5
2018-11-26T07:12:16.844Z,90.3
2018-11-26T07:13:17.104Z,90.0
2018-11-26T07:14:16.370Z,90.1
2018-11-26T07:15:16.690Z,89.9
2018-11-26T07:16:16.957Z,90.2
2018-11-26T07:17:17.236Z,89.8
2018-11-26T07:18:16.500Z,90.0
2018-11-26T07:19:16.771Z,89.8
2018-11-26T07:20:17.064Z,89.8
2018-11-26T07:21:17.105Z,89.8
2018-11-26T07:22:16.386Z,89.5
2018-11-26T07:23:16.659Z,89.5
2018-11-26T07:24:16.937Z,89.8
2018-11-26T07:25:17.222Z,89.8
2018-11-26T07:26:16.478Z,89.8
2018-11-26T07:27:16.750Z,89.8
2018-11-26T07:28:17.028Z,89.8
2018-11-26T07:29:23.962Z,89.8
2018-11-26T07:30:16.396Z,89.3
2018-11-26T07:31:16.454Z,89.9
2018-11-26T07:32:16.727Z,89.8
2018-11-26T07:33:16.991Z,89.5
2018-11-26T07:34:16.253Z,89.6
2018-11-26T07:35:16.540Z,89.5
2018-11-26T07:36:16.829Z,89.2
2018-11-26T07:37:17.403Z,89.5
2018-11-26T07:38:16.674Z,89.4
2018-11-26T07:39:16.940Z,89.2
2018-11-26T07:40:17.232Z,89.3
2018-11-26T07:41:16.277Z,89.3
2018-11-26T07:42:16.542Z,89.3
2018-11-26T07:43:16.808Z,89.3
2018-11-26T07:44:17.077Z,89.4
2018-11-26T07:45:16.348Z,89.1
2018-11-26T07:46:16.628Z,89.0
2018-11-26T07:47:16.898Z,88.7
2018-11-26T07:48:17.164Z,89.0
2018-11-26T07:49:16.431Z,88.3
2018-11-26T07:50:16.713Z,88.6
2018-11-26T07:51:16.766Z,88.6
2018-11-26T07:52:17.049Z,88.5
2018-11-26T07:53:16.320Z,89.0
2018-11-26T07:54:16.598Z,88.8
2018-11-26T07:55:16.874Z,88.8
2018-11-26T07:56:17.146Z,88.7
2018-11-26T07:57:16.408Z,88.7
2018-11-26T07:58:16.679Z,89.2
2018-11-26T07:59:16.948Z,88.7
2018-11-26T08:00:17.239Z,89.2
2018-11-26T08:01:16.290Z,89.3
2018-11-26T08:02:16.562Z,89.1
2018-11-26T08:03:16.829Z,89.0
2018-11-26T08:04:17.106Z,88.9
2018-11-26T08:05:16.372Z,89.1
2018-11-26T08:06:16.642Z,88.8
2018-11-26T08:07:16.907Z,88.3
2018-11-26T08:08:17.178Z,88.8
2018-11-26T08:09:16.453Z,88.7
2018-11-26T08:10:16.741Z,89.0
2018-11-26T08:11:16.778Z,88.8
2018-11-26T08:12:17.058Z,88.3
2018-11-26T08:13:16.329Z,88.7
2018-11-26T08:14:16.609Z,88.7
2018-11-26T08:15:16.893Z,88.5
2018-11-26T08:16:17.154Z,88.2
2018-11-26T08:17:16.432Z,88.8
2018-11-26T08:18:16.706Z,88.4
2018-11-26T08:19:16.972Z,88.0
2018-11-26T08:20:17.267Z,88.2
2018-11-26T08:21:16.327Z,88.3
2018-11-26T08:22:16.578Z,88.5
2018-11-26T08:23:16.855Z,88.3
2018-11-26T08:24:17.128Z,88.5
2018-11-26T08:25:16.407Z,87.9
2018-11-26T08:26:16.676Z,87.8
2018-11-26T08:27:16.950Z,88.1
2018-11-26T08:28:17.218Z,88.5
2018-11-26T08:29:16.480Z,88.2
2018-11-26T08:30:16.780Z,88.5
2018-11-26T08:31:16.816Z,88.3
2018-11-26T08:32:17.074Z,87.8
2018-11-26T08:33:16.352Z,87.7
2018-11-26T08:34:16.617Z,87.8
2018-11-26T08:35:16.886Z,87.7
2018-11-26T08:36:17.153Z,87.9
2018-11-26T08:37:16.424Z,88.0
2018-11-26T08:38:16.731Z,87.6
2018-11-26T08:39:17.009Z,87.7
2018-11-26T08:40:16.300Z,88.0
2018-11-26T08:41:16.364Z,88.0
2018-11-26T08:42:16.635Z,87.8
2018-11-26T08:43:16.899Z,87.5
2018-11-26T08:44:17.171Z,87.5
2018-11-26T08:45:16.428Z,87.5
2018-11-26T08:46:16.694Z,87.3
2018-11-26T08:47:16.971Z,87.2
2018-11-26T08:48:17.298Z,87.0
2018-11-26T08:49:16.571Z,87.2
2018-11-26T08:50:16.858Z,87.0
2018-11-26T08:51:16.905Z,87.3
2018-11-26T08:52:17.191Z,86.4
2018-11-26T08:53:16.459Z,87.0
2018-11-26T08:54:16.731Z,86.4
2018-11-26T08:55:17.081Z,86.6
2018-11-26T08:56:16.348Z,86.8
2018-11-26T08:57:16.624Z,85.9
2018-11-26T08:58:16.902Z,86.1
2018-11-26T08:59:17.177Z,86.2
2018-11-26T09:00:16.454Z,85.8
2018-11-26T09:01:16.541Z,86.6
2018-11-26T09:02:16.808Z,85.8
2018-11-26T09:03:17.090Z,85.4
2018-11-26T09:04:16.371Z,84.5
2018-11-26T09:05:24.349Z,84.1
2018-11-26T09:06:16.648Z,83.4
2018-11-26T09:07:16.924Z,82.1
2018-11-26T09:08:17.212Z,81.7
2018-11-26T09:09:16.475Z,81.9
2018-11-26T09:10:16.768Z,81.9
2018-11-26T09:11:16.831Z,81.3
2018-11-26T09:12:17.103Z,81.1
2018-11-26T09:13:16.379Z,82.2
2018-11-26T09:14:16.664Z,81.5
2018-11-26T09:15:16.956Z,81.8
2018-11-26T09:16:17.224Z,80.9
2018-11-26T09:17:16.489Z,81.2
2018-11-26T09:18:16.760Z,80.7
2018-11-26T09:19:17.042Z,80.8
2018-11-26T09:20:16.323Z,80.2
2018-11-26T09:21:16.405Z,80.5
2018-11-26T09:22:16.681Z,80.7
2018-11-26T09:23:16.949Z,80.1
2018-11-26T09:24:17.221Z,79.8
2018-11-26T09:25:16.493Z,80.6
2018-11-26T09:26:16.767Z,80.2
2018-11-26T09:27:17.035Z,80.3
2018-11-26T09:28:16.308Z,80.3
2018-11-26T09:29:16.596Z,80.7
2018-11-26T09:30:16.878Z,81.1
2018-11-26T09:31:16.927Z,80.7
2018-11-26T09:32:17.199Z,80.1
2018-11-26T09:33:16.471Z,79.9
2018-11-26T09:34:16.737Z,79.2
2018-11-26T09:35:17.017Z,80.0
2018-11-26T09:36:16.281Z,79.6
2018-11-26T09:37:16.552Z,79.7
2018-11-26T09:38:16.828Z,79.8
2018-11-26T09:39:17.102Z,80.5
2018-11-26T09:40:16.405Z,80.6
2018-11-26T09:41:16.431Z,80.8
2018-11-26T09:42:16.704Z,80.5
2018-11-26T09:43:16.964Z,81.1
2018-11-26T09:44:17.225Z,80.8
2018-11-26T09:45:16.502Z,79.9
2018-11-26T09:46:16.777Z,79.8
2018-11-26T09:47:17.046Z,80.5
2018-11-26T09:48:16.320Z,80.7
2018-11-26T09:49:16.614Z,80.0
2018-11-26T09:50:16.918Z,79.3
2018-11-26T09:51:16.965Z,79.7
2018-11-26T09:52:17.227Z,79.3
2018-11-26T09:53:16.489Z,80.0
2018-11-26T09:54:16.779Z,79.8
2018-11-26T09:55:17.077Z,80.2
2018-11-26T09:56:16.337Z,79.8
2018-11-26T09:57:16.617Z,79.9
2018-11-26T09:58:16.885Z,79.8
2018-11-26T09:59:17.152Z,79.7
2018-11-26T10:00:16.432Z,80.0
2018-11-26T10:01:16.485Z,80.0
2018-11-26T10:02:16.753Z,80.3
2018-11-26T10:03:17.075Z,79.8
2018-11-26T10:04:16.346Z,80.1
2018-11-26T10:05:16.610Z,80.0
2018-11-26T10:06:16.873Z,80.1
2018-11-26T10:07:17.147Z,80.1
2018-11-26T10:08:16.408Z,80.0
2018-11-26T10:09:16.680Z,79.0
2018-11-26T10:10:16.983Z,79.4
2018-11-26T10:11:16.998Z,79.8
2018-11-26T10:12:16.260Z,79.0
2018-11-26T10:13:16.539Z,79.8
2018-11-26T10:14:16.811Z,79.8
2018-11-26T10:15:17.279Z,79.7
2018-11-26T10:16:16.549Z,79.9
2018-11-26T10:17:16.829Z,80.2
2018-11-26T10:18:17.104Z,80.3
2018-11-26T10:19:16.372Z,79.9
2018-11-26T10:20:16.658Z,80.3
2018-11-26T10:21:16.705Z,81.0
2018-11-26T10:22:16.983Z,81.3
2018-11-26T10:23:17.249Z,81.0
2018-11-26T10:24:16.508Z,79.4
2018-11-26T10:25:16.781Z,79.2
2018-11-26T10:26:17.045Z,79.7
2018-11-26T10:27:16.317Z,79.4
2018-11-26T10:28:16.589Z,80.0
2018-11-26T10:29:16.864Z,79.6
2018-11-26T10:30:17.155Z,79.7
2018-11-26T10:31:17.181Z,79.4
2018-11-26T10:32:16.457Z,79.7
2018-11-26T10:33:16.721Z,79.1
2018-11-26T10:34:16.998Z,78.9
2018-11-26T10:35:16.266Z,79.5
2018-11-26T10:36:16.554Z,78.3
2018-11-26T10:37:16.837Z,78.0
2018-11-26T10:38:17.108Z,79.1
2018-11-26T10:39:16.378Z,79.0
2018-11-26T10:40:16.675Z,79.1
2018-11-26T10:41:16.723Z,78.2
2018-11-26T10:42:16.994Z,78.2
2018-11-26T10:43:16.269Z,78.5
2018-11-26T10:44:16.547Z,78.3
2018-11-26T10:45:16.822Z,78.0
2018-11-26T10:46:17.091Z,77.7
2018-11-26T10:47:16.351Z,77.7
2018-11-26T10:48:16.620Z,77.7
2018-11-26T10:49:16.899Z,78.6
2018-11-26T10:50:17.205Z,78.4
2018-11-26T10:51:16.263Z,78.0
2018-11-26T10:52:16.545Z,79.2
2018-11-26T10:53:16.831Z,77.2
2018-11-26T10:54:17.094Z,77.2
2018-11-26T10:55:16.370Z,77.3
2018-11-26T10:56:16.645Z,77.5
2018-11-26T10:57:16.914Z,77.8
2018-11-26T10:58:17.559Z,77.0
2018-11-26T10:59:16.828Z,77.8
2018-11-26T11:00:17.130Z,77.0
2018-11-26T11:01:17.170Z,77.0
2018-11-26T11:02:16.440Z,77.1
2018-11-26T11:03:16.836Z,76.9
2018-11-26T11:04:17.192Z,77.3
2018-11-26T11:05:16.538Z,77.4
2018-11-26T11:06:16.853Z,76.0
2018-11-26T11:07:17.154Z,76.4
2018-11-26T11:08:16.458Z,76.7
2018-11-26T11:09:16.757Z,77.0
2018-11-26T11:10:17.067Z,76.7
2018-11-26T11:11:23.614Z,75.7
2018-11-26T11:12:17.165Z,77.2
2018-11-26T11:13:16.444Z,76.0
2018-11-26T11:14:16.742Z,76.2
2018-11-26T11:15:17.041Z,76.3
2018-11-26T11:16:16.340Z,76.2
2018-11-26T11:17:16.630Z,75.7
2018-11-26T11:18:16.924Z,75.7
2018-11-26T11:19:17.228Z,76.0
2018-11-26T11:20:16.530Z,76.3
2018-11-26T11:21:16.574Z,76.2
2018-11-26T11:22:16.888Z,76.3
2018-11-26T11:23:17.171Z,75.7
2018-11-26T11:24:16.468Z,75.6
2018-11-26T11:25:16.796Z,75.0
2018-11-26T11:26:17.102Z,76.1
2018-11-26T11:27:16.387Z,75.0
2018-11-26T11:28:16.869Z,74.8
2018-11-26T11:29:17.166Z,74.6
2018-11-26T11:30:16.446Z,74.9
2018-11-26T11:31:16.547Z,74.8
2018-11-26T11:32:16.841Z,74.8
2018-11-26T11:34:16.620Z,74.8
2018-11-26T11:35:16.905Z,74.8
2018-11-26T11:36:17.202Z,75.4
2018-11-26T11:37:16.487Z,74.3
2018-11-26T11:38:16.763Z,74.8
2018-11-26T11:39:17.069Z,74.7
2018-11-26T11:40:16.360Z,74.5
2018-11-26T11:41:16.441Z,74.8
2018-11-26T11:42:16.730Z,75.1
2018-11-26T11:43:17.029Z,74.8
2018-11-26T11:44:16.338Z,74.8
2018-11-26T11:45:16.609Z,75.2
2018-11-26T11:46:16.899Z,75.8
2018-11-26T11:47:17.180Z,75.2
2018-11-26T11:48:16.466Z,75.3
2018-11-26T11:49:16.743Z,75.3
2018-11-26T11:50:17.039Z,75.7
2018-11-26T11:51:17.118Z,76.4
2018-11-26T11:52:16.400Z,76.4
2018-11-26T11:53:16.683Z,75.8
2018-11-26T11:54:16.969Z,76.2
2018-11-26T11:55:17.262Z,76.5
2018-11-26T11:56:16.550Z,75.8
2018-11-26T11:57:16.837Z,75.5
2018-11-26T11:58:17.120Z,75.8
2018-11-26T11:59:16.409Z,76.1
2018-11-26T12:00:16.711Z,75.6
2018-11-26T12:01:16.747Z,75.5
2018-11-26T12:02:17.010Z,74.5
2018-11-26T12:03:16.288Z,75.3
2018-11-26T12:04:16.592Z,74.9
2018-11-26T12:05:16.863Z,75.2
2018-11-26T12:06:17.165Z,75.6
2018-11-26T12:07:16.463Z,74.4
2018-11-26T12:08:16.742Z,74.5
2018-11-26T12:09:17.032Z,74.6
2018-11-26T12:10:16.329Z,74.4
2018-11-26T12:11:16.401Z,74.5
2018-11-26T12:12:16.688Z,74.3
2018-11-26T12:13:16.975Z,75.2
2018-11-26T12:14:17.260Z,74.7
2018-11-26T12:15:16.563Z,74.4
2018-11-26T12:16:16.868Z,74.8
2018-11-26T12:17:17.145Z,75.5
2018-11-26T12:18:16.439Z,75.7
2018-11-26T12:19:16.724Z,75.2
2018-11-26T12:20:17.027Z,74.8
2018-11-26T12:21:17.068Z,74.3
2018-11-26T12:22:16.359Z,75.6
2018-11-26T12:23:16.621Z,74.8
2018-11-26T12:24:16.883Z,75.0
2018-11-26T12:25:17.163Z,74.6
2018-11-26T12:26:16.444Z,75.2
2018-11-26T12:27:16.748Z,74.8
2018-11-26T12:28:17.037Z,74.7
2018-11-26T12:29:16.346Z,73.7
2018-11-26T12:30:16.640Z,74.2
2018-11-26T12:31:16.705Z,74.9
2018-11-26T12:32:17.001Z,74.2
2018-11-26T12:33:16.312Z,75.2
2018-11-26T12:34:16.612Z,74.0
2018-11-26T12:35:16.951Z,73.8
2018-11-26T12:36:17.244Z,74.5
2018-11-26T12:37:16.550Z,75.2
2018-11-26T12:38:16.859Z,74.0
2018-11-26T12:39:17.134Z,74.0
2018-11-26T12:40:16.416Z,74.5
2018-11-26T12:41:16.465Z,74.3
2018-11-26T12:42:16.743Z,74.1
2018-11-26T12:43:17.020Z,74.0
2018-11-26T12:44:16.307Z,74.2
2018-11-26T12:45:16.615Z,73.9
2018-11-26T12:46:16.901Z,75.2
2018-11-26T12:47:17.174Z,75.1
2018-11-26T12:48:16.456Z,74.8
2018-11-26T12:49:16.749Z,74.5
2018-11-26T12:50:17.054Z,74.2
2018-11-26T12:51:17.095Z,73.8
2018-11-26T12:52:16.362Z,74.0
2018-11-26T12:53:16.639Z,74.6
2018-11-26T12:54:16.945Z,74.6
2018-11-26T12:55:17.249Z,74.7
2018-11-26T12:56:16.531Z,75.7
2018-11-26T12:57:16.819Z,75.2
2018-11-26T12:58:17.091Z,75.2
2018-11-26T12:59:16.371Z,74.0
2018-11-26T13:00:16.641Z,74.2
2018-11-26T13:01:16.707Z,74.0
2018-11-26T13:02:17.007Z,74.3
2018-11-26T13:03:16.311Z,74.0
2018-11-26T13:04:16.599Z,74.2
2018-11-26T13:05:16.889Z,74.4
2018-11-26T13:06:17.193Z,73.8
2018-11-26T13:07:16.502Z,74.0
2018-11-26T13:08:17.127Z,75.2
2018-11-26T13:09:16.406Z,73.5
2018-11-26T13:10:16.716Z,73.4
2018-11-26T13:11:16.768Z,72.8
2018-11-26T13:12:17.044Z,73.2
2018-11-26T13:13:16.323Z,73.9
2018-11-26T13:14:16.617Z,74.7
2018-11-26T13:15:16.936Z,74.2
2018-11-26T13:16:17.212Z,73.8
2018-11-26T13:17:16.496Z,73.0
2018-11-26T13:18:16.778Z,73.2
2018-11-26T13:19:17.086Z,72.7